createdAt,value
2023-04-24T00:00:41.842Z,14.92
2023-04-24T00:01:43.957Z,14.96
2023-04-24T00:02:48.244Z,14.99
2023-04-24T00:03:50.215Z,15.02
2023-04-24T00:04:52.251Z,15.04
2023-04-24T00:05:53.844Z,15.09
2023-04-24T00:06:58.283Z,15.09
2023-04-24T00:08:00.039Z,15.14
2023-04-24T00:09:02.012Z,15.14
2023-04-24T00:10:03.781Z,15.10
2023-04-24T00:11:05.422Z,15.06
2023-04-24T00:12:07.080Z,15.04
2023-04-24T00:13:08.766Z,14.90
2023-04-24T00:14:10.308Z,14.85
2023-04-24T00:15:12.121Z,14.83
2023-04-24T00:16:13.680Z,14.76
2023-04-24T00:17:15.299Z,14.71
2023-04-24T00:18:16.847Z,14.62
2023-04-24T00:19:18.515Z,14.58
2023-04-24T00:20:20.207Z,14.60
2023-04-24T00:21:22.658Z,14.63
2023-04-24T00:22:24.222Z,14.54
2023-04-24T00:23:25.746Z,14.55
2023-04-24T00:24:27.430Z,14.65
2023-04-24T00:25:29.010Z,14.64
2023-04-24T00:26:30.666Z,14.58
2023-04-24T00:27:32.301Z,14.52
2023-04-24T00:28:33.844Z,14.52
2023-04-24T00:29:35.390Z,14.60
2023-04-24T00:30:37.301Z,14.66
2023-04-24T00:31:38.930Z,14.70
2023-04-24T00:32:40.525Z,14.74
2023-04-24T00:33:42.233Z,14.78
2023-04-24T00:34:43.780Z,14.80
2023-04-24T00:35:45.410Z,14.80
2023-04-24T00:36:47.217Z,14.80
2023-04-24T00:37:48.977Z,14.74
2023-04-24T00:38:50.560Z,14.71
2023-04-24T00:39:52.190Z,14.74
2023-04-24T00:40:55.131Z,14.65
2023-04-24T00:41:57.851Z,14.47
2023-04-24T00:42:59.496Z,14.40
2023-04-24T00:44:01.096Z,14.45
2023-04-24T00:45:04.259Z,14.40
2023-04-24T00:46:05.983Z,14.24
2023-04-24T00:47:08.450Z,13.96
2023-04-24T00:48:10.394Z,13.89
2023-04-24T00:49:12.864Z,13.99
2023-04-24T00:50:16.513Z,14.10
2023-04-24T00:51:18.110Z,14.20
2023-04-24T00:52:19.733Z,14.25
2023-04-24T00:53:21.745Z,14.38
2023-04-24T00:54:23.335Z,14.49
2023-04-24T00:55:25.891Z,14.58
2023-04-24T00:56:28.436Z,14.63
2023-04-24T00:57:30.167Z,14.65
2023-04-24T00:58:32.461Z,14.65
2023-04-24T00:59:34.160Z,14.66
2023-04-24T01:00:36.194Z,14.69
2023-04-24T01:01:37.876Z,14.76
2023-04-24T01:02:45.069Z,14.79
2023-04-24T01:03:46.885Z,14.83
2023-04-24T01:04:50.622Z,14.85
2023-04-24T01:05:52.173Z,14.88
2023-04-24T01:06:55.451Z,14.89
2023-04-24T01:07:57.887Z,14.91
2023-04-24T01:09:00.444Z,14.93
2023-04-24T01:10:02.428Z,14.96
2023-04-24T01:11:06.082Z,14.96
2023-04-24T01:12:07.922Z,14.98
2023-04-24T01:13:09.704Z,14.99
2023-04-24T01:14:11.461Z,15.00
2023-04-24T01:15:13.237Z,14.99
2023-04-24T01:16:16.290Z,14.99
2023-04-24T01:17:18.011Z,14.97
2023-04-24T01:18:19.643Z,14.92
2023-04-24T01:19:21.195Z,14.89
2023-04-24T01:20:25.705Z,14.88
2023-04-24T01:21:31.184Z,14.83
2023-04-24T01:22:35.340Z,14.78
2023-04-24T01:23:36.960Z,14.84
2023-04-24T01:24:38.934Z,14.85
2023-04-24T01:25:40.677Z,14.85
2023-04-24T01:26:42.247Z,14.82
2023-04-24T01:27:44.467Z,14.74
2023-04-24T01:28:46.306Z,14.42
2023-04-24T01:29:50.298Z,14.13
2023-04-24T01:30:52.053Z,13.86
2023-04-24T01:31:54.543Z,13.66
2023-04-24T01:32:56.998Z,13.51
2023-04-24T01:33:58.896Z,13.26
2023-04-24T01:35:01.056Z,13.19
2023-04-24T01:36:02.763Z,13.22
2023-04-24T01:37:04.428Z,13.10
2023-04-24T01:38:06.660Z,13.03
2023-04-24T01:39:08.632Z,13.01
2023-04-24T01:40:10.704Z,13.01
2023-04-24T01:41:12.428Z,13.05
2023-04-24T01:42:14.192Z,13.08
2023-04-24T01:43:16.740Z,13.12
2023-04-24T01:44:18.708Z,13.16
2023-04-24T01:45:20.470Z,13.17
2023-04-24T01:46:22.101Z,13.21
2023-04-24T01:47:24.718Z,13.29
2023-04-24T01:48:26.616Z,13.39
2023-04-24T01:49:28.472Z,13.47
2023-04-24T01:50:30.059Z,13.56
2023-04-24T01:51:31.645Z,13.66
2023-04-24T01:52:34.345Z,13.71
2023-04-24T01:53:35.994Z,13.62
2023-04-24T01:54:37.648Z,13.54
2023-04-24T01:55:39.380Z,13.62
2023-04-24T01:56:43.538Z,13.64
2023-04-24T01:57:45.074Z,13.63
2023-04-24T01:58:46.858Z,13.65
2023-04-24T01:59:48.421Z,13.65
2023-04-24T02:00:49.993Z,13.63
2023-04-24T02:01:51.655Z,13.51
2023-04-24T02:02:53.485Z,13.33
2023-04-24T02:03:55.298Z,13.16
2023-04-24T02:04:57.892Z,13.09
2023-04-24T02:05:59.407Z,13.08
2023-04-24T02:07:00.924Z,12.91
2023-04-24T02:08:02.466Z,12.75
2023-04-24T02:09:04.514Z,12.68
2023-04-24T02:10:07.050Z,12.65
2023-04-24T02:11:10.913Z,12.60
2023-04-24T02:12:12.484Z,12.57
2023-04-24T02:13:14.018Z,12.58
2023-04-24T02:14:15.645Z,12.58
2023-04-24T02:15:17.819Z,12.61
2023-04-24T02:16:20.020Z,12.67
2023-04-24T02:17:21.589Z,12.74
2023-04-24T02:18:23.778Z,12.75
2023-04-24T02:19:25.379Z,12.74
2023-04-24T02:20:27.095Z,12.72
2023-04-24T02:21:28.982Z,12.76
2023-04-24T02:22:30.593Z,12.81
2023-04-24T02:23:32.166Z,12.86
2023-04-24T02:24:33.759Z,12.81
2023-04-24T02:25:35.572Z,12.76
2023-04-24T02:26:37.124Z,12.78
2023-04-24T02:27:38.669Z,12.83
2023-04-24T02:28:40.233Z,12.86
2023-04-24T02:29:41.972Z,12.90
2023-04-24T02:30:43.696Z,12.89
2023-04-24T02:31:45.366Z,12.72
2023-04-24T02:32:46.961Z,12.61
2023-04-24T02:33:48.798Z,12.58
2023-04-24T02:34:50.465Z,12.51
2023-04-24T02:35:52.015Z,12.42
2023-04-24T02:36:54.971Z,12.29
2023-04-24T02:37:56.546Z,12.29
2023-04-24T02:38:58.062Z,12.30
2023-04-24T02:39:59.641Z,12.31
2023-04-24T02:41:01.818Z,12.34
2023-04-24T02:42:03.925Z,12.47
2023-04-24T02:43:05.485Z,12.54
2023-04-24T02:44:07.037Z,12.59
2023-04-24T02:45:09.074Z,12.56
2023-04-24T02:46:10.741Z,12.52
2023-04-24T02:47:12.433Z,12.51
2023-04-24T02:48:14.019Z,12.53
2023-04-24T02:49:15.558Z,12.53
2023-04-24T02:50:17.200Z,12.57
2023-04-24T02:51:18.807Z,12.68
2023-04-24T02:52:20.449Z,12.72
2023-04-24T02:53:22.005Z,12.73
2023-04-24T02:54:23.514Z,12.75
2023-04-24T02:55:25.052Z,12.69
2023-04-24T02:56:26.623Z,12.61
2023-04-24T02:57:28.138Z,12.57
2023-04-24T02:58:29.673Z,12.56
2023-04-24T02:59:31.205Z,12.56
2023-04-24T03:00:32.814Z,12.50
2023-04-24T03:01:34.640Z,12.54
2023-04-24T03:02:36.282Z,12.63
2023-04-24T03:03:39.340Z,12.63
2023-04-24T03:04:41.143Z,12.59
2023-04-24T03:05:42.817Z,12.59
2023-04-24T03:06:44.467Z,12.64
2023-04-24T03:07:46.620Z,12.59
2023-04-24T03:08:48.171Z,12.56
2023-04-24T03:09:49.768Z,12.61
2023-04-24T03:10:51.368Z,12.59
2023-04-24T03:11:53.021Z,12.64
2023-04-24T03:12:56.049Z,12.69
2023-04-24T03:13:57.614Z,12.65
2023-04-24T03:14:59.203Z,12.60
2023-04-24T03:16:00.820Z,12.56
2023-04-24T03:17:02.615Z,12.56
2023-04-24T03:18:04.295Z,12.53
2023-04-24T03:19:05.866Z,12.50
2023-04-24T03:20:09.377Z,12.50
2023-04-24T03:21:11.117Z,12.48
2023-04-24T03:22:13.285Z,12.43
2023-04-24T03:23:15.029Z,12.37
2023-04-24T03:24:17.008Z,12.31
2023-04-24T03:25:18.817Z,12.22
2023-04-24T03:26:20.916Z,12.14
2023-04-24T03:27:22.549Z,12.13
2023-04-24T03:28:24.210Z,12.22
2023-04-24T03:29:25.801Z,12.31
2023-04-24T03:30:27.364Z,12.32
2023-04-24T03:31:28.893Z,12.22
2023-04-24T03:32:30.789Z,12.16
2023-04-24T03:33:32.340Z,12.17
2023-04-24T03:34:34.028Z,12.25
2023-04-24T03:35:35.611Z,12.26
2023-04-24T03:36:37.161Z,12.32
2023-04-24T03:37:38.745Z,12.33
2023-04-24T03:38:40.358Z,12.34
2023-04-24T03:39:42.174Z,12.38
2023-04-24T03:40:44.443Z,12.42
2023-04-24T03:41:45.956Z,12.39
2023-04-24T03:42:47.606Z,12.43
2023-04-24T03:43:49.599Z,12.47
2023-04-24T03:44:51.175Z,12.51
2023-04-24T03:45:52.778Z,12.52
2023-04-24T03:46:54.382Z,12.50
2023-04-24T03:47:55.969Z,12.49
2023-04-24T03:48:57.557Z,12.50
2023-04-24T03:49:59.131Z,12.44
2023-04-24T03:51:00.706Z,12.49
2023-04-24T03:52:02.541Z,12.52
2023-04-24T03:53:04.709Z,12.57
2023-04-24T03:54:06.280Z,12.53
2023-04-24T03:55:08.286Z,12.52
2023-04-24T03:56:10.078Z,12.47
2023-04-24T03:57:11.636Z,12.43
2023-04-24T03:58:14.765Z,12.43
2023-04-24T03:59:16.336Z,12.45
2023-04-24T04:00:17.977Z,12.38
2023-04-24T04:01:21.704Z,12.30
2023-04-24T04:02:23.552Z,12.34
2023-04-24T04:03:26.577Z,12.31
2023-04-24T04:04:28.516Z,12.28
2023-04-24T04:05:30.483Z,12.17
2023-04-24T04:06:32.260Z,12.11
2023-04-24T04:07:33.897Z,12.05
2023-04-24T04:08:35.592Z,11.99
2023-04-24T04:09:37.126Z,12.04
2023-04-24T04:10:38.680Z,12.06
2023-04-24T04:11:40.298Z,11.98
2023-04-24T04:12:41.860Z,11.94
2023-04-24T04:13:43.387Z,11.98
2023-04-24T04:14:44.944Z,12.03
2023-04-24T04:15:46.531Z,12.10
2023-04-24T04:16:48.190Z,12.13
2023-04-24T04:17:50.016Z,12.09
2023-04-24T04:18:51.751Z,12.10
2023-04-24T04:19:53.432Z,12.07
2023-04-24T04:20:55.253Z,12.06
2023-04-24T04:21:57.276Z,12.07
2023-04-24T04:22:58.861Z,12.06
2023-04-24T04:24:00.431Z,12.08
2023-04-24T04:25:02.029Z,12.10
2023-04-24T04:26:04.450Z,12.07
2023-04-24T04:27:06.453Z,12.00
2023-04-24T04:28:08.112Z,11.99
2023-04-24T04:29:09.631Z,11.98
2023-04-24T04:30:11.466Z,12.03
2023-04-24T04:31:13.011Z,12.05
2023-04-24T04:32:14.766Z,12.05
2023-04-24T04:33:16.330Z,12.02
2023-04-24T04:34:17.904Z,12.07
2023-04-24T04:35:19.468Z,12.14
2023-04-24T04:36:21.050Z,12.18
2023-04-24T04:37:22.678Z,12.34
2023-04-24T04:38:24.445Z,12.47
2023-04-24T04:39:26.232Z,12.53
2023-04-24T04:40:29.398Z,12.61
2023-04-24T04:41:31.154Z,12.52
2023-04-24T04:42:33.660Z,12.42
2023-04-24T04:43:35.674Z,12.32
2023-04-24T04:44:37.367Z,12.23
2023-04-24T04:45:41.306Z,12.18
2023-04-24T04:46:43.180Z,12.20
2023-04-24T04:47:45.407Z,12.33
2023-04-24T04:48:47.071Z,12.42
2023-04-24T04:49:49.217Z,12.51
2023-04-24T04:50:51.007Z,12.50
2023-04-24T04:51:52.515Z,12.59
2023-04-24T04:52:54.130Z,12.66
2023-04-24T04:53:55.818Z,12.76
2023-04-24T04:54:57.380Z,12.87
2023-04-24T04:55:59.074Z,12.96
2023-04-24T04:57:03.120Z,13.08
2023-04-24T04:58:05.892Z,13.16
2023-04-24T04:59:07.428Z,13.23
2023-04-24T05:00:11.849Z,13.30
2023-04-24T05:01:13.527Z,13.38
2023-04-24T05:02:15.457Z,13.48
2023-04-24T05:03:21.208Z,13.50
2023-04-24T05:04:23.430Z,13.47
2023-04-24T05:05:25.760Z,13.51
2023-04-24T05:06:28.676Z,13.53
2023-04-24T05:07:30.838Z,13.51
2023-04-24T05:08:32.661Z,13.42
2023-04-24T05:09:34.413Z,13.50
2023-04-24T05:10:37.928Z,13.59
2023-04-24T05:11:39.489Z,13.53
2023-04-24T05:12:41.065Z,13.48
2023-04-24T05:13:42.627Z,13.28
2023-04-24T05:14:44.250Z,13.16
2023-04-24T05:15:45.902Z,13.08
2023-04-24T05:16:48.081Z,12.99
2023-04-24T05:17:50.949Z,12.97
2023-04-24T05:18:53.692Z,12.86
2023-04-24T05:19:55.516Z,12.78
2023-04-24T05:20:57.121Z,12.80
2023-04-24T05:21:58.647Z,12.89
2023-04-24T05:23:00.227Z,12.87
2023-04-24T05:24:01.779Z,12.89
2023-04-24T05:25:03.915Z,13.00
2023-04-24T05:26:07.790Z,13.10
2023-04-24T05:27:09.639Z,13.25
2023-04-24T05:28:11.509Z,13.45
2023-04-24T05:29:13.067Z,13.67
2023-04-24T05:30:15.183Z,13.74
2023-04-24T05:31:18.823Z,13.81
2023-04-24T05:32:20.445Z,13.90
2023-04-24T05:33:22.041Z,13.85
2023-04-24T05:34:23.733Z,13.83
2023-04-24T05:35:25.341Z,13.85
2023-04-24T05:36:28.169Z,14.02
2023-04-24T05:37:29.711Z,14.02
2023-04-24T05:38:31.224Z,13.97
2023-04-24T05:39:32.767Z,13.95
2023-04-24T05:40:34.289Z,13.94
2023-04-24T05:41:35.998Z,13.98
2023-04-24T05:42:37.514Z,14.22
2023-04-24T05:43:39.081Z,14.38
2023-04-24T05:44:40.669Z,14.33
2023-04-24T05:45:42.191Z,14.37
2023-04-24T05:46:43.818Z,14.37
2023-04-24T05:47:46.084Z,14.39
2023-04-24T05:48:47.703Z,14.32
2023-04-24T05:49:49.514Z,14.39
2023-04-24T05:50:51.782Z,14.49
2023-04-24T05:51:53.416Z,14.67
2023-04-24T05:52:54.960Z,14.82
2023-04-24T05:53:56.512Z,14.91
2023-04-24T05:54:58.047Z,15.01
2023-04-24T05:55:59.787Z,15.11
2023-04-24T05:57:05.452Z,15.09
2023-04-24T05:58:07.192Z,15.02
2023-04-24T05:59:09.867Z,15.19
2023-04-24T06:00:13.675Z,15.43
2023-04-24T06:01:15.297Z,15.57
2023-04-24T06:02:17.567Z,15.71
2023-04-24T06:03:19.271Z,15.88
2023-04-24T06:04:21.152Z,15.96
2023-04-24T06:05:23.033Z,15.90
2023-04-24T06:06:25.474Z,15.91
2023-04-24T06:07:30.258Z,15.88
2023-04-24T06:08:31.874Z,15.99
2023-04-24T06:09:33.415Z,16.19
2023-04-24T06:10:35.131Z,16.40
2023-04-24T06:11:36.919Z,16.59
2023-04-24T06:12:38.515Z,16.75
2023-04-24T06:13:40.429Z,16.89
2023-04-24T06:14:41.968Z,17.06
2023-04-24T06:15:44.357Z,17.21
2023-04-24T06:16:47.273Z,17.40
2023-04-24T06:17:49.954Z,17.59
2023-04-24T06:18:51.650Z,17.72
2023-04-24T06:19:53.174Z,17.75
2023-04-24T06:20:56.229Z,17.83
2023-04-24T06:21:57.853Z,17.99
2023-04-24T06:22:59.367Z,18.05
2023-04-24T06:24:01.173Z,18.04
2023-04-24T06:25:02.824Z,18.14
2023-04-24T06:26:04.383Z,18.29
2023-04-24T06:27:06.032Z,18.38
2023-04-24T06:28:07.638Z,18.44
2023-04-24T06:29:09.351Z,18.47
2023-04-24T06:30:11.262Z,18.60
2023-04-24T06:31:12.798Z,18.45
2023-04-24T06:32:14.378Z,18.35
2023-04-24T06:33:20.826Z,18.54
2023-04-24T06:34:23.936Z,18.13
2023-04-24T06:35:25.511Z,18.17
2023-04-24T06:36:27.394Z,17.84
2023-04-24T06:37:29.218Z,17.77
2023-04-24T06:38:30.935Z,17.96
2023-04-24T06:39:32.490Z,18.07
2023-04-24T06:40:34.532Z,17.91
2023-04-24T06:41:36.154Z,17.84
2023-04-24T06:42:37.905Z,17.98
2023-04-24T06:43:39.562Z,18.08
2023-04-24T06:44:43.885Z,18.07
2023-04-24T06:45:49.338Z,18.27
2023-04-24T06:46:51.079Z,18.30
2023-04-24T06:47:52.728Z,18.46
2023-04-24T06:48:58.140Z,18.58
2023-04-24T06:50:00.352Z,18.76
2023-04-24T06:51:01.894Z,18.83
2023-04-24T06:52:03.680Z,18.79
2023-04-24T06:53:05.271Z,18.85
2023-04-24T06:54:07.024Z,18.57
2023-04-24T06:55:09.379Z,18.42
2023-04-24T06:56:11.177Z,18.01
2023-04-24T06:57:12.857Z,17.94
2023-04-24T06:58:15.492Z,17.60
2023-04-24T06:59:17.050Z,17.76
2023-04-24T07:00:18.774Z,18.06
2023-04-24T07:01:20.548Z,18.20
2023-04-24T07:02:22.327Z,18.11
2023-04-24T07:03:24.251Z,17.98
2023-04-24T07:04:26.338Z,17.97
2023-04-24T07:05:29.187Z,18.04
2023-04-24T07:06:32.697Z,18.07
2023-04-24T07:07:34.304Z,17.61
2023-04-24T07:08:36.848Z,17.41
2023-04-24T07:09:40.070Z,17.70
2023-04-24T07:10:41.658Z,17.67
2023-04-24T07:11:43.236Z,17.53
2023-04-24T07:12:44.869Z,17.77
2023-04-24T07:13:46.613Z,17.95
2023-04-24T07:14:48.568Z,17.96
2023-04-24T07:15:55.139Z,17.61
2023-04-24T07:16:58.173Z,17.60
2023-04-24T07:17:59.787Z,17.51
2023-04-24T07:19:01.424Z,17.71
2023-04-24T07:20:03.055Z,17.85
2023-04-24T07:21:04.671Z,18.07
2023-04-24T07:22:06.263Z,17.88
2023-04-24T07:23:07.797Z,17.55
2023-04-24T07:24:13.890Z,17.67
2023-04-24T07:25:15.474Z,18.04
2023-04-24T07:26:17.047Z,18.22
2023-04-24T07:27:18.797Z,18.42
2023-04-24T07:28:20.542Z,18.25
2023-04-24T07:29:22.114Z,18.30
2023-04-24T07:30:23.758Z,18.56
2023-04-24T07:31:25.606Z,18.83
2023-04-24T07:32:27.250Z,19.03
2023-04-24T07:33:28.776Z,19.09
2023-04-24T07:34:30.456Z,18.99
2023-04-24T07:35:32.012Z,19.07
2023-04-24T07:36:33.738Z,19.21
2023-04-24T07:37:35.416Z,19.16
2023-04-24T07:38:36.988Z,19.06
2023-04-24T07:39:38.597Z,19.25
2023-04-24T07:40:40.176Z,18.95
2023-04-24T07:41:41.693Z,18.35
2023-04-24T07:42:43.271Z,18.40
2023-04-24T07:43:45.348Z,18.62
2023-04-24T07:44:48.627Z,18.88
2023-04-24T07:45:51.404Z,18.94
2023-04-24T07:46:53.160Z,18.82
2023-04-24T07:47:55.052Z,18.77
2023-04-24T07:49:09.605Z,18.90
2023-04-24T07:50:14.404Z,19.09
2023-04-24T07:51:16.383Z,19.05
2023-04-24T07:52:18.331Z,19.32
2023-04-24T07:53:19.948Z,19.48
2023-04-24T07:54:21.981Z,19.66
2023-04-24T07:55:26.455Z,19.58
2023-04-24T07:56:32.289Z,19.73
2023-04-24T07:57:34.022Z,19.83
2023-04-24T07:58:36.037Z,19.86
2023-04-24T07:59:37.661Z,19.93
2023-04-24T08:00:39.295Z,20.14
2023-04-24T08:01:41.062Z,20.27
2023-04-24T08:02:42.768Z,20.17
2023-04-24T08:03:44.685Z,19.94
2023-04-24T08:04:46.489Z,19.55
2023-04-24T08:05:48.314Z,19.43
2023-04-24T08:06:49.979Z,19.30
2023-04-24T08:07:51.629Z,19.28
2023-04-24T08:08:53.196Z,19.34
2023-04-24T08:09:54.943Z,19.39
2023-04-24T08:10:56.545Z,19.52
2023-04-24T08:11:58.181Z,19.73
2023-04-24T08:12:59.703Z,19.86
2023-04-24T08:14:01.700Z,20.07
2023-04-24T08:15:03.610Z,19.95
2023-04-24T08:16:05.391Z,19.86
2023-04-24T08:17:07.135Z,19.77
2023-04-24T08:18:08.877Z,19.71
2023-04-24T08:19:10.581Z,19.79
2023-04-24T08:20:15.617Z,19.88
2023-04-24T08:21:21.607Z,19.58
2023-04-24T08:22:23.188Z,19.43
2023-04-24T08:23:24.744Z,19.45
2023-04-24T08:24:26.351Z,19.44
2023-04-24T08:25:27.901Z,19.49
2023-04-24T08:26:29.499Z,19.70
2023-04-24T08:27:31.235Z,19.92
2023-04-24T08:28:32.811Z,19.98
2023-04-24T08:29:34.436Z,19.82
2023-04-24T08:30:36.066Z,19.79
2023-04-24T08:31:37.707Z,19.78
2023-04-24T08:32:39.305Z,19.75
2023-04-24T08:33:42.005Z,19.70
2023-04-24T08:34:43.619Z,19.84
2023-04-24T08:35:45.193Z,19.98
2023-04-24T08:36:47.777Z,19.90
2023-04-24T08:37:49.738Z,19.86
2023-04-24T08:38:51.473Z,19.78
2023-04-24T08:39:53.370Z,19.85
2023-04-24T08:40:55.975Z,19.79
2023-04-24T08:41:57.516Z,19.83
2023-04-24T08:43:00.424Z,19.91
2023-04-24T08:44:03.448Z,19.96
2023-04-24T08:45:05.484Z,19.95
2023-04-24T08:46:11.573Z,19.99
2023-04-24T08:47:16.175Z,19.99
2023-04-24T08:48:29.697Z,19.87
2023-04-24T08:49:32.515Z,19.93
2023-04-24T08:50:35.502Z,19.94
2023-04-24T08:51:38.956Z,20.15
2023-04-24T08:52:40.615Z,20.28
2023-04-24T08:53:42.600Z,20.40
2023-04-24T08:54:46.440Z,20.11
2023-04-24T08:55:49.163Z,20.07
2023-04-24T08:56:52.208Z,19.73
2023-04-24T08:57:55.172Z,19.78
2023-04-24T08:58:56.927Z,19.68
2023-04-24T08:59:59.387Z,19.74
2023-04-24T09:01:01.751Z,20.02
2023-04-24T09:02:05.735Z,20.13
2023-04-24T09:03:07.969Z,20.30
2023-04-24T09:04:12.227Z,20.48
2023-04-24T09:05:15.233Z,20.58
2023-04-24T09:06:19.084Z,20.62
2023-04-24T09:07:23.314Z,20.75
2023-04-24T09:08:26.762Z,20.80
2023-04-24T09:09:31.585Z,20.61
2023-04-24T09:10:35.849Z,20.51
2023-04-24T09:11:38.217Z,20.66
2023-04-24T09:12:39.909Z,20.70
2023-04-24T09:13:42.369Z,20.59
2023-04-24T09:14:46.415Z,20.40
2023-04-24T09:15:48.191Z,20.29
2023-04-24T09:16:49.888Z,20.41
2023-04-24T09:17:51.547Z,20.62
2023-04-24T09:18:53.448Z,20.67
2023-04-24T09:19:55.030Z,20.76
2023-04-24T09:21:09.423Z,20.96
2023-04-24T09:22:12.204Z,21.15
2023-04-24T09:23:18.672Z,21.34
2023-04-24T09:24:23.765Z,21.38
2023-04-24T09:25:37.118Z,21.51
2023-04-24T09:26:38.706Z,21.46
2023-04-24T09:27:47.002Z,20.92
2023-04-24T09:28:48.974Z,20.48
2023-04-24T09:29:57.561Z,20.64
2023-04-24T09:31:15.699Z,20.68
2023-04-24T09:32:26.824Z,20.60
2023-04-24T09:33:28.496Z,20.63
2023-04-24T09:34:30.081Z,20.76
2023-04-24T09:35:33.271Z,20.76
2023-04-24T09:36:38.713Z,20.67
2023-04-24T09:37:42.414Z,20.43
2023-04-24T09:38:44.022Z,20.28
2023-04-24T09:39:45.796Z,20.33
2023-04-24T09:40:47.372Z,20.38
2023-04-24T09:41:54.193Z,20.62
2023-04-24T09:43:03.595Z,20.82
2023-04-24T09:44:19.406Z,21.01
2023-04-24T09:45:21.861Z,21.16
2023-04-24T09:46:31.960Z,21.43
2023-04-24T09:47:42.884Z,21.40
2023-04-24T09:48:44.459Z,21.16
2023-04-24T09:49:46.305Z,21.13
2023-04-24T09:50:53.083Z,21.19
2023-04-24T09:52:11.559Z,21.23
2023-04-24T09:53:13.095Z,21.02
2023-04-24T09:54:20.937Z,20.77
2023-04-24T09:55:22.811Z,20.75
2023-04-24T09:56:27.348Z,20.99
2023-04-24T09:57:28.940Z,21.12
2023-04-24T09:58:30.808Z,21.29
2023-04-24T09:59:32.474Z,21.53
2023-04-24T10:00:34.501Z,21.57
2023-04-24T10:01:36.332Z,21.55
2023-04-24T10:02:38.102Z,21.73
2023-04-24T10:03:43.537Z,21.79
2023-04-24T10:04:56.785Z,21.87
2023-04-24T10:06:02.886Z,22.00
2023-04-24T10:07:07.729Z,21.99
2023-04-24T10:08:11.432Z,22.12
2023-04-24T10:09:14.718Z,22.25
2023-04-24T10:10:16.909Z,22.27
2023-04-24T10:11:18.914Z,22.34
2023-04-24T10:12:20.588Z,22.39
2023-04-24T10:13:22.379Z,22.26
2023-04-24T10:14:26.087Z,22.33
2023-04-24T10:15:28.575Z,22.43
2023-04-24T10:16:33.459Z,22.32
2023-04-24T10:17:36.051Z,21.89
2023-04-24T10:18:38.565Z,21.57
2023-04-24T10:19:42.109Z,21.57
2023-04-24T10:20:43.778Z,21.63
2023-04-24T10:21:49.229Z,21.33
2023-04-24T10:22:53.242Z,21.37
2023-04-24T10:23:54.837Z,21.18
2023-04-24T10:24:58.136Z,21.36
2023-04-24T10:26:01.411Z,21.56
2023-04-24T10:27:04.194Z,21.65
2023-04-24T10:28:08.369Z,21.59
2023-04-24T10:29:13.696Z,21.27
2023-04-24T10:30:15.921Z,21.17
2023-04-24T10:31:18.542Z,21.26
2023-04-24T10:32:20.158Z,21.30
2023-04-24T10:33:23.518Z,21.42
2023-04-24T10:34:25.812Z,21.42
2023-04-24T10:35:27.913Z,21.26
2023-04-24T10:36:33.864Z,21.33
2023-04-24T10:37:40.001Z,21.45
2023-04-24T10:38:44.627Z,21.57
2023-04-24T10:39:49.390Z,21.69
2023-04-24T10:40:50.993Z,21.76
2023-04-24T10:41:52.623Z,21.88
2023-04-24T10:42:56.821Z,21.90
2023-04-24T10:44:13.303Z,21.87
2023-04-24T10:45:20.207Z,21.78
2023-04-24T10:46:24.566Z,21.92
2023-04-24T10:47:26.347Z,21.77
2023-04-24T10:48:28.228Z,21.73
2023-04-24T10:49:32.038Z,21.84
2023-04-24T10:50:48.375Z,21.89
2023-04-24T10:51:56.252Z,21.91
2023-04-24T10:53:08.828Z,21.98
2023-04-24T10:54:45.108Z,22.01
2023-04-24T10:55:53.305Z,21.80
2023-04-24T10:57:24.068Z,21.62
2023-04-24T10:58:36.734Z,21.62
2023-04-24T10:59:38.527Z,21.72
2023-04-24T11:00:41.609Z,21.73
2023-04-24T11:01:54.996Z,21.73
2023-04-24T11:02:58.132Z,21.82
2023-04-24T11:04:02.193Z,21.72
2023-04-24T11:05:05.259Z,21.55
2023-04-24T11:06:08.707Z,21.69
2023-04-24T11:07:11.484Z,21.62
2023-04-24T11:08:15.002Z,21.55
2023-04-24T11:09:17.416Z,21.55
2023-04-24T11:10:28.104Z,21.79
2023-04-24T11:11:31.209Z,21.94
2023-04-24T11:12:36.165Z,21.99
2023-04-24T11:13:56.040Z,21.97
2023-04-24T11:14:57.992Z,22.05
2023-04-24T11:16:21.538Z,22.03
2023-04-24T11:17:34.584Z,22.11
2023-04-24T11:18:46.300Z,22.22
2023-04-24T11:19:53.933Z,22.30
2023-04-24T11:20:56.180Z,22.07
2023-04-24T11:22:05.064Z,21.89
2023-04-24T11:23:07.757Z,21.84
2023-04-24T11:24:32.022Z,21.97
2023-04-24T11:25:33.974Z,21.86
2023-04-24T11:26:39.603Z,21.92
2023-04-24T11:27:47.484Z,22.03
2023-04-24T11:28:51.870Z,22.10
2023-04-24T11:29:57.065Z,22.13
2023-04-24T11:30:59.050Z,22.06
2023-04-24T11:32:20.599Z,21.81
2023-04-24T11:33:22.721Z,21.83
2023-04-24T11:34:24.538Z,21.78
2023-04-24T11:35:28.696Z,21.79
2023-04-24T11:36:32.845Z,21.64
2023-04-24T11:37:37.327Z,21.68
2023-04-24T11:38:40.162Z,21.74
2023-04-24T11:39:42.114Z,21.65
2023-04-24T11:40:44.284Z,21.49
2023-04-24T11:41:46.012Z,21.52
2023-04-24T11:42:49.102Z,21.47
2023-04-24T11:43:51.543Z,21.61
2023-04-24T11:44:55.270Z,21.70
2023-04-24T11:46:01.354Z,21.88
2023-04-24T11:47:02.965Z,21.74
2023-04-24T11:48:04.944Z,21.57
2023-04-24T11:49:07.521Z,21.69
2023-04-24T11:50:11.751Z,21.65
2023-04-24T11:51:14.299Z,21.56
2023-04-24T11:52:17.996Z,21.56
2023-04-24T11:53:23.556Z,21.31
2023-04-24T11:54:25.149Z,21.29
2023-04-24T11:55:28.418Z,21.36
2023-04-24T11:56:30.089Z,21.20
2023-04-24T11:57:35.476Z,21.22
2023-04-24T11:58:38.168Z,21.20
2023-04-24T11:59:39.832Z,21.20
2023-04-24T12:00:41.388Z,21.14
2023-04-24T12:01:50.701Z,20.98
2023-04-24T12:02:52.857Z,20.99
2023-04-24T12:04:01.354Z,20.94
2023-04-24T12:05:03.444Z,20.81
2023-04-24T12:06:10.088Z,20.82
2023-04-24T12:07:12.037Z,20.73
2023-04-24T12:08:28.327Z,20.71
2023-04-24T12:09:29.990Z,20.73
2023-04-24T12:10:33.446Z,20.88
2023-04-24T12:11:34.956Z,20.97
2023-04-24T12:12:36.492Z,20.89
2023-04-24T12:13:38.147Z,20.87
2023-04-24T12:14:53.830Z,21.12
2023-04-24T12:15:55.621Z,21.24
2023-04-24T12:16:58.187Z,21.29
2023-04-24T12:18:00.205Z,21.25
2023-04-24T12:19:03.067Z,21.28
2023-04-24T12:20:07.315Z,21.53
2023-04-24T12:21:21.344Z,21.66
2023-04-24T12:22:24.220Z,21.54
2023-04-24T12:23:36.801Z,21.40
2023-04-24T12:24:58.039Z,21.44
2023-04-24T12:26:04.502Z,21.38
2023-04-24T12:27:06.354Z,21.30
2023-04-24T12:28:08.630Z,21.25
2023-04-24T12:29:10.448Z,21.30
2023-04-24T12:30:17.614Z,21.37
2023-04-24T12:31:22.051Z,21.38
2023-04-24T12:32:24.421Z,21.22
2023-04-24T12:33:26.617Z,21.31
2023-04-24T12:34:28.221Z,21.40
2023-04-24T12:35:33.083Z,21.53
2023-04-24T12:36:36.457Z,21.51
2023-04-24T12:37:38.125Z,21.47
2023-04-24T12:38:44.761Z,21.47
2023-04-24T12:40:13.207Z,21.60
2023-04-24T12:41:15.349Z,21.70
2023-04-24T12:42:27.255Z,21.74
2023-04-24T12:43:28.867Z,21.60
2023-04-24T12:44:32.699Z,21.60
2023-04-24T12:45:34.301Z,21.66
2023-04-24T12:46:36.024Z,21.73
2023-04-24T12:47:37.625Z,21.86
2023-04-24T12:48:39.328Z,21.83
2023-04-24T12:49:41.104Z,21.85
2023-04-24T12:50:46.418Z,21.96
2023-04-24T12:51:48.760Z,22.05
2023-04-24T12:52:50.476Z,22.12
2023-04-24T12:53:52.857Z,22.00
2023-04-24T12:55:58.025Z,21.98
2023-04-24T12:56:59.670Z,21.98
2023-04-24T12:58:01.598Z,21.79
2023-04-24T12:59:03.198Z,21.86
2023-04-24T13:00:06.799Z,21.84
2023-04-24T13:01:08.533Z,21.83
2023-04-24T13:02:11.212Z,21.79
2023-04-24T13:03:13.341Z,21.62
2023-04-24T13:04:15.096Z,21.54
2023-04-24T13:05:16.917Z,21.58
2023-04-24T13:06:18.452Z,21.58
2023-04-24T13:07:20.140Z,21.69
2023-04-24T13:08:21.677Z,21.74
2023-04-24T13:09:23.251Z,21.73
2023-04-24T13:10:24.812Z,21.64
2023-04-24T13:11:26.481Z,21.52
2023-04-24T13:12:28.101Z,21.57
2023-04-24T13:13:29.674Z,21.59
2023-04-24T13:14:31.578Z,21.53
2023-04-24T13:15:33.159Z,21.47
2023-04-24T13:16:35.054Z,21.38
2023-04-24T13:17:36.821Z,21.25
2023-04-24T13:18:38.452Z,21.34
2023-04-24T13:19:43.974Z,21.39
2023-04-24T13:20:48.368Z,21.30
2023-04-24T13:21:49.993Z,21.21
2023-04-24T13:22:51.574Z,21.05
2023-04-24T13:23:53.460Z,20.93
2023-04-24T13:24:55.593Z,20.93
2023-04-24T13:25:59.439Z,20.92
2023-04-24T13:27:01.814Z,21.00
2023-04-24T13:28:03.428Z,21.05
2023-04-24T13:29:05.006Z,21.10
2023-04-24T13:30:07.479Z,21.11
2023-04-24T13:31:09.033Z,20.99
2023-04-24T13:32:10.888Z,21.04